Time;durP1;ratioP1;P1;durP2;ratioP2;P2;SDS_P1;SDS_P2;PMS_P1;PMS_P2;Temp;Humidity;BMP_temperature;BMP_pressure;BME280_temperature;BME280_humidity;BME280_pressure;Samples;Min_cycle;Max_cycle;Signal;HPM_P1;HPM_P2
2022/10/28 00:01:15;;;;;;;28.90;14.23;;;13.40;99.90;;;;;;5074643;28;20380;-30
2022/10/28 00:03:44;;;;;;;26.67;13.60;;;13.40;99.90;;;;;;5074149;28;20049;-28
2022/10/28 00:06:20;;;;;;;26.05;14.38;;;13.40;99.90;;;;;;5074233;28;20044;-29
2022/10/28 00:08:47;;;;;;;24.38;12.95;;;13.40;99.90;;;;;;5075185;28;20040;-28
2022/10/28 00:11:17;;;;;;;19.70;13.38;;;13.40;99.90;;;;;;5074551;28;20047;-28
2022/10/28 00:13:46;;;;;;;23.92;13.73;;;13.50;99.90;;;;;;5074847;28;20055;-28
2022/10/28 00:16:14;;;;;;;23.77;13.30;;;13.60;99.90;;;;;;5073015;28;20541;-28
2022/10/28 00:18:46;;;;;;;24.45;14.02;;;13.70;99.90;;;;;;5074154;28;20048;-29
2022/10/28 00:21:19;;;;;;;24.13;13.35;;;13.80;99.90;;;;;;5074071;28;20478;-29
2022/10/28 00:23:45;;;;;;;26.77;12.77;;;13.90;99.90;;;;;;5074123;28;20088;-28
2022/10/28 00:26:16;;;;;;;26.40;13.30;;;13.90;99.90;;;;;;5074060;28;20096;-29
2022/10/28 00:28:46;;;;;;;20.38;12.63;;;13.90;99.90;;;;;;5074043;28;20122;-29
2022/10/28 00:31:16;;;;;;;23.48;12.77;;;14.00;99.90;;;;;;5074819;28;20061;-29
2022/10/28 00:33:47;;;;;;;26.17;13.20;;;14.00;99.90;;;;;;5072967;28;20048;-28
2022/10/28 00:36:17;;;;;;;23.58;13.05;;;14.00;99.90;;;;;;5073949;28;20048;-28
2022/10/28 00:38:45;;;;;;;23.52;12.20;;;13.90;99.90;;;;;;5074460;28;20044;-28
2022/10/28 00:41:13;;;;;;;22.92;11.77;;;14.00;99.90;;;;;;5073829;28;20091;-28
2022/10/28 00:43:46;;;;;;;23.42;12.35;;;14.00;99.90;;;;;;5073525;28;20498;-28
2022/10/28 00:46:35;;;;;;;24.85;13.20;;;14.00;99.90;;;;;;5074657;28;20067;-29
2022/10/28 00:49:10;;;;;;;23.77;12.50;;;14.10;99.90;;;;;;5073596;28;20052;-28
2022/10/28 00:51:36;;;;;;;20.95;13.13;;;14.20;99.90;;;;;;5072539;28;20471;-29
2022/10/28 00:54:07;;;;;;;19.45;12.23;;;14.10;99.90;;;;;;5072773;28;20049;-29
2022/10/28 00:56:39;;;;;;;20.27;11.38;;;14.10;99.90;;;;;;5074266;28;20056;-28
2022/10/28 00:59:14;;;;;;;20.15;10.57;;;14.10;99.90;;;;;;5073694;28;20493;-28
2022/10/28 01:01:40;;;;;;;26.63;12.63;;;14.00;99.90;;;;;;5073890;28;20071;-29
2022/10/28 01:04:07;;;;;;;25.15;12.38;;;14.00;99.90;;;;;;5073579;28;20479;-28
2022/10/28 01:06:32;;;;;;;18.15;12.60;;;13.90;99.90;;;;;;5073851;28;20185;-29
2022/10/28 01:08:58;;;;;;;25.10;13.20;;;13.90;99.90;;;;;;5073541;28;20127;-29
2022/10/28 01:11:55;;;;;;;19.00;12.05;;;13.80;99.90;;;;;;5072352;28;20051;-29
2022/10/28 01:14:51;;;;;;;23.27;13.70;;;13.80;99.90;;;;;;5073849;28;20048;-29
2022/10/28 01:17:17;;;;;;;25.52;13.35;;;13.70;99.90;;;;;;5073586;28;20094;-29
2022/10/28 01:20:32;;;;;;;25.58;13.10;;;13.70;99.90;;;;;;5074252;28;20048;-29
2022/10/28 01:23:30;;;;;;;22.05;12.48;;;13.60;99.90;;;;;;5073376;28;20135;-28
2022/10/28 01:26:17;;;;;;;21.85;13.48;;;13.50;99.90;;;;;;5073254;28;20119;-28
2022/10/28 01:29:05;;;;;;;23.38;13.65;;;13.40;99.90;;;;;;5073676;28;20044;-28
2022/10/28 01:31:35;;;;;;;23.60;14.20;;;13.30;99.90;;;;;;5074903;28;20040;-29
2022/10/28 01:34:20;;;;;;;32.63;15.20;;;13.30;99.90;;;;;;5077304;28;20133;-29
2022/10/28 01:37:19;;;;;;;30.05;17.00;;;13.20;99.90;;;;;;5059609;28;20487;-28
2022/10/28 01:40:00;;;;;;;27.85;16.15;;;13.20;99.90;;;;;;5077467;28;20122;-29
2022/10/28 01:42:32;;;;;;;34.90;16.38;;;13.10;99.90;;;;;;5077424;28;20048;-29
2022/10/28 01:45:24;;;;;;;33.20;17.10;;;13.10;99.90;;;;;;5076924;28;20060;-29
2022/10/28 01:48:24;;;;;;;29.47;16.30;;;13.10;99.90;;;;;;5077098;28;20053;-28
2022/10/28 01:51:00;;;;;;;30.95;17.55;;;13.00;99.90;;;;;;5070175;28;20390;-28
2022/10/28 01:53:33;;;;;;;28.58;16.40;;;13.10;99.90;;;;;;5076946;28;20076;-28
2022/10/28 01:56:03;;;;;;;40.13;18.70;;;13.10;99.90;;;;;;5075980;28;20052;-30
2022/10/28 01:58:31;;;;;;;40.25;19.38;;;13.00;99.90;;;;;;5076883;28;20174;-30
2022/10/28 02:01:02;;;;;;;35.75;19.30;;;13.00;99.90;;;;;;5076787;28;20040;-29
2022/10/28 02:03:27;;;;;;;38.22;19.08;;;13.10;99.90;;;;;;5076717;28;20105;-28
2022/10/28 02:05:59;;;;;;;42.05;20.45;;;13.00;99.90;;;;;;5076719;28;20128;-28
2022/10/28 02:08:42;;;;;;;35.90;18.75;;;13.00;99.90;;;;;;5076678;28;20599;-28
2022/10/28 02:11:26;;;;;;;35.53;19.38;;;13.00;99.90;;;;;;5076670;28;20045;-29
2022/10/28 02:14:05;;;;;;;34.45;17.55;;;13.00;99.90;;;;;;5076504;28;20052;-29
2022/10/28 02:16:48;;;;;;;44.97;20.85;;;13.00;99.90;;;;;;5076259;28;20561;-29
2022/10/28 02:19:38;;;;;;;34.53;20.08;;;13.10;99.90;;;;;;5076501;28;20048;-29
2022/10/28 02:22:35;;;;;;;41.20;20.67;;;13.00;99.90;;;;;;5076638;28;20041;-28
2022/10/28 02:25:06;;;;;;;42.33;19.17;;;13.00;99.90;;;;;;5076903;28;20082;-28
2022/10/28 02:27:57;;;;;;;32.08;17.27;;;13.00;99.90;;;;;;5076325;28;20055;-29
2022/10/28 02:30:32;;;;;;;34.33;19.60;;;13.00;99.90;;;;;;5076304;28;20137;-29
2022/10/28 02:33:05;;;;;;;31.17;18.10;;;13.00;99.90;;;;;;5076520;28;20398;-28
2022/10/28 02:35:40;;;;;;;35.20;19.40;;;13.00;99.90;;;;;;5076213;28;20052;-36
2022/10/28 02:38:20;;;;;;;36.03;17.42;;;13.00;99.90;;;;;;5076719;28;20040;-28
2022/10/28 02:40:51;;;;;;;29.98;17.25;;;13.00;99.90;;;;;;5076598;28;20087;-28
2022/10/28 02:43:22;;;;;;;38.28;19.10;;;13.10;99.90;;;;;;5075485;28;20052;-28
2022/10/28 02:45:52;;;;;;;32.70;17.90;;;13.10;99.90;;;;;;5075260;28;20095;-29
2022/10/28 02:48:26;;;;;;;36.60;19.02;;;13.00;99.90;;;;;;5075911;28;20127;-29
2022/10/28 02:51:02;;;;;;;37.47;18.67;;;13.00;99.90;;;;;;5076459;28;20047;-28
2022/10/28 02:53:34;;;;;;;43.67;19.70;;;13.00;99.90;;;;;;5075872;28;20059;-29
2022/10/28 02:56:04;;;;;;;34.33;17.77;;;12.90;99.90;;;;;;5075822;28;20047;-29
2022/10/28 02:58:39;;;;;;;37.08;19.50;;;12.80;99.90;;;;;;5074621;28;20053;-28
2022/10/28 03:01:06;;;;;;;36.17;18.27;;;12.80;99.90;;;;;;5074491;28;20048;-28
2022/10/28 03:03:32;;;;;;;29.67;18.73;;;12.80;99.90;;;;;;5075631;28;20052;-28
2022/10/28 03:06:03;;;;;;;32.53;18.77;;;12.80;99.90;;;;;;5074624;28;20075;-28
2022/10/28 03:08:31;;;;;;;34.40;19.55;;;12.70;99.90;;;;;;5059308;28;20504;-28
2022/10/28 03:10:57;;;;;;;38.30;19.67;;;12.70;99.90;;;;;;5075544;28;20045;-29
2022/10/28 03:13:22;;;;;;;35.13;19.75;;;12.70;99.90;;;;;;5074814;28;20558;-28
2022/10/28 03:15:48;;;;;;;39.45;20.73;;;12.60;99.90;;;;;;5075371;28;20131;-28
2022/10/28 03:18:14;;;;;;;39.03;20.73;;;12.60;99.90;;;;;;5076199;28;20056;-29
2022/10/28 03:20:39;;;;;;;41.75;20.48;;;12.70;99.90;;;;;;5075248;28;20075;-29
2022/10/28 03:23:05;;;;;;;40.47;22.20;;;12.70;99.90;;;;;;5075235;28;20149;-29
2022/10/28 03:25:31;;;;;;;49.13;23.58;;;12.70;99.90;;;;;;5075781;28;20052;-28
2022/10/28 03:27:56;;;;;;;47.72;23.52;;;12.70;99.90;;;;;;5075713;28;20128;-28
2022/10/28 03:30:24;;;;;;;47.03;24.17;;;12.70;99.90;;;;;;5075093;28;20119;-28
2022/10/28 03:32:50;;;;;;;36.95;22.30;;;12.60;99.90;;;;;;5075068;28;20044;-28
2022/10/28 03:35:16;;;;;;;40.85;22.67;;;12.60;99.90;;;;;;5074994;28;20063;-28
2022/10/28 03:37:42;;;;;;;44.72;22.27;;;12.60;99.90;;;;;;5074642;28;20135;-28
2022/10/28 03:40:09;;;;;;;47.58;23.73;;;12.50;99.90;;;;;;5075430;28;20055;-28
2022/10/28 03:42:34;;;;;;;43.10;24.08;;;12.50;99.90;;;;;;5074830;28;20545;-28
2022/10/28 03:45:00;;;;;;;55.30;26.15;;;12.50;99.90;;;;;;5075416;28;20094;-29
2022/10/28 03:47:26;;;;;;;47.15;24.45;;;12.50;99.90;;;;;;5074728;28;20486;-28
2022/10/28 03:49:54;;;;;;;54.45;27.70;;;12.50;99.90;;;;;;5075532;28;20059;-28
2022/10/28 03:52:19;;;;;;;51.63;24.90;;;12.50;99.90;;;;;;5074694;28;20399;-29
2022/10/28 03:54:47;;;;;;;54.97;28.40;;;12.50;99.90;;;;;;5073212;28;20048;-29
2022/10/28 03:57:13;;;;;;;53.15;26.63;;;12.40;99.90;;;;;;5074553;28;20054;-28
2022/10/28 03:59:39;;;;;;;50.22;27.52;;;12.40;99.90;;;;;;5074514;28;20080;-29
2022/10/28 04:02:04;;;;;;;53.75;26.45;;;12.50;99.90;;;;;;5074667;28;20082;-29
2022/10/28 04:04:30;;;;;;;62.83;27.85;;;12.30;99.90;;;;;;5074913;28;20451;-28
2022/10/28 04:06:56;;;;;;;48.15;27.48;;;12.30;99.90;;;;;;5074353;28;20047;-29
2022/10/28 04:09:21;;;;;;;57.50;27.85;;;12.30;99.90;;;;;;5073445;28;20131;-28
2022/10/28 04:11:50;;;;;;;55.25;27.83;;;12.30;99.90;;;;;;5074566;28;20070;-28
2022/10/28 04:14:21;;;;;;;56.95;27.77;;;12.20;99.90;;;;;;5074238;28;20036;-28
2022/10/28 04:16:46;;;;;;;55.40;27.40;;;12.20;99.90;;;;;;5074834;28;20078;-28
2022/10/28 04:19:12;;;;;;;53.67;29.00;;;12.20;99.90;;;;;;5073486;28;20048;-28
2022/10/28 04:21:38;;;;;;;57.90;29.65;;;12.20;99.90;;;;;;5074866;28;20052;-28
2022/10/28 04:24:04;;;;;;;61.17;28.38;;;12.30;99.90;;;;;;5073517;28;20466;-28
2022/10/28 04:26:34;;;;;;;74.88;32.83;;;12.20;99.90;;;;;;5074065;28;20040;-29
2022/10/28 04:29:00;;;;;;;57.40;29.35;;;12.20;99.90;;;;;;5074301;28;20509;-28
2022/10/28 04:31:25;;;;;;;68.07;31.75;;;12.20;99.90;;;;;;5074020;28;20080;-28
2022/10/28 04:33:51;;;;;;;63.83;32.22;;;12.20;99.90;;;;;;5074019;28;20395;-28
2022/10/28 04:36:19;;;;;;;64.05;30.65;;;12.10;99.90;;;;;;5074730;28;20056;-28
2022/10/28 04:38:44;;;;;;;76.47;36.30;;;12.20;99.90;;;;;;5074699;28;20052;-29
2022/10/28 04:41:14;;;;;;;73.05;34.28;;;12.10;99.90;;;;;;5073537;28;20045;-28
2022/10/28 04:43:40;;;;;;;61.88;32.08;;;12.10;99.90;;;;;;5074036;28;20080;-28
2022/10/28 04:46:05;;;;;;;62.28;32.55;;;12.20;99.90;;;;;;5072653;28;20483;-28
2022/10/28 04:48:32;;;;;;;67.70;32.70;;;12.10;99.90;;;;;;5074336;28;20398;-28
2022/10/28 04:50:58;;;;;;;75.22;34.95;;;12.10;99.90;;;;;;5073721;28;20123;-28
2022/10/28 04:53:23;;;;;;;71.05;33.83;;;12.10;99.90;;;;;;5073717;28;20080;-28
2022/10/28 04:55:49;;;;;;;73.60;33.60;;;12.10;99.90;;;;;;5073751;28;20090;-29
2022/10/28 04:58:15;;;;;;;68.68;36.67;;;12.10;99.90;;;;;;5072491;28;20471;-28
2022/10/28 05:00:40;;;;;;;73.60;34.20;;;12.20;99.90;;;;;;5073530;28;20049;-28
2022/10/28 05:03:06;;;;;;;75.95;36.28;;;12.10;99.90;;;;;;5056371;28;20044;-28
2022/10/28 05:05:34;;;;;;;84.63;36.22;;;12.20;99.90;;;;;;5072353;28;20527;-28
2022/10/28 05:08:01;;;;;;;75.70;35.47;;;12.20;99.90;;;;;;5073481;28;20516;-28
2022/10/28 05:10:27;;;;;;;76.45;35.75;;;12.20;99.90;;;;;;5073564;28;20049;-28
2022/10/28 05:12:52;;;;;;;76.90;36.63;;;12.20;99.90;;;;;;5074055;28;20072;-28
2022/10/28 05:15:18;;;;;;;68.05;33.53;;;12.10;99.90;;;;;;5073491;28;20053;-28
2022/10/28 05:17:45;;;;;;;82.35;37.42;;;12.20;99.90;;;;;;5073481;28;20394;-28
2022/10/28 05:20:15;;;;;;;75.78;36.75;;;12.10;99.90;;;;;;5073927;28;20448;-28
2022/10/28 05:22:48;;;;;;;80.63;38.40;;;12.20;99.90;;;;;;5073111;28;20465;-28
2022/10/28 05:25:15;;;;;;;74.22;35.88;;;12.20;99.90;;;;;;5073532;28;20057;-28
2022/10/28 05:27:41;;;;;;;91.75;38.97;;;12.20;99.90;;;;;;5073381;28;20052;-28
2022/10/28 05:30:08;;;;;;;83.05;37.28;;;12.10;99.90;;;;;;5073384;28;20056;-28
2022/10/28 05:32:33;;;;;;;80.50;36.90;;;12.30;99.90;;;;;;5074132;28;20064;-28
2022/10/28 05:34:59;;;;;;;81.50;36.58;;;12.30;99.90;;;;;;5072737;28;20479;-29
2022/10/28 05:37:25;;;;;;;84.82;39.53;;;12.20;99.90;;;;;;5073848;28;20048;-28
2022/10/28 05:39:53;;;;;;;84.30;37.88;;;12.40;99.90;;;;;;5072934;28;20052;-28
2022/10/28 05:42:18;;;;;;;79.07;39.42;;;12.20;99.90;;;;;;5072742;28;20123;-28
2022/10/28 05:44:44;;;;;;;77.38;37.42;;;12.20;99.90;;;;;;5071712;28;20494;-28
2022/10/28 05:47:10;;;;;;;81.40;39.75;;;12.20;99.90;;;;;;5071980;28;20056;-28
2022/10/28 05:49:36;;;;;;;71.97;35.63;;;12.30;99.90;;;;;;5074005;28;20090;-28
2022/10/28 05:52:01;;;;;;;84.15;38.17;;;12.20;99.90;;;;;;5089004;28;20451;-29
2022/10/28 05:54:27;;;;;;;80.50;36.78;;;12.20;99.90;;;;;;5073966;28;20120;-28
2022/10/28 05:56:53;;;;;;;82.13;36.88;;;12.20;99.90;;;;;;5071905;28;20482;-28
2022/10/28 05:59:18;;;;;;;79.78;38.17;;;12.30;99.90;;;;;;5073105;28;20394;-29
2022/10/28 06:01:44;;;;;;;70.72;35.42;;;12.20;99.90;;;;;;5072985;28;20044;-28
2022/10/28 06:04:10;;;;;;;78.75;36.10;;;12.30;99.90;;;;;;5073249;28;20055;-28
2022/10/28 06:06:38;;;;;;;85.30;39.00;;;12.10;99.90;;;;;;5072876;28;20102;-28
2022/10/28 06:09:04;;;;;;;72.15;34.83;;;12.20;99.90;;;;;;5071793;28;20483;-28
2022/10/28 06:11:29;;;;;;;77.38;37.05;;;12.20;99.90;;;;;;5072952;28;20041;-28
2022/10/28 06:13:55;;;;;;;86.15;37.10;;;12.10;99.90;;;;;;5073221;28;20045;-27
2022/10/28 06:16:21;;;;;;;77.75;36.45;;;12.00;99.90;;;;;;5072959;28;20060;-29
2022/10/28 06:18:46;;;;;;;79.32;36.28;;;12.00;99.90;;;;;;5074801;28;20121;-28
2022/10/28 06:21:12;;;;;;;89.45;37.38;;;12.10;99.90;;;;;;5076912;28;20127;-28
2022/10/28 06:23:38;;;;;;;76.72;35.28;;;12.10;99.90;;;;;;5076043;28;20385;-28
2022/10/28 06:26:04;;;;;;;69.38;34.22;;;12.00;99.90;;;;;;5076589;28;20471;-29
2022/10/28 06:28:30;;;;;;;79.03;35.85;;;12.10;99.90;;;;;;5076284;28;20127;-28
2022/10/28 06:31:08;;;;;;;67.53;35.33;;;12.00;99.90;;;;;;5076294;28;20040;-28
2022/10/28 06:33:35;;;;;;;80.88;35.75;;;12.10;99.90;;;;;;5076887;28;20049;-28
2022/10/28 06:36:01;;;;;;;71.78;34.63;;;12.20;99.90;;;;;;5075484;28;20040;-28
2022/10/28 06:38:28;;;;;;;64.38;32.33;;;12.10;99.90;;;;;;5075196;28;20101;-28
2022/10/28 06:40:56;;;;;;;70.90;33.25;;;12.10;99.90;;;;;;5076020;28;20048;-27
2022/10/28 06:43:21;;;;;;;66.70;32.67;;;12.20;99.90;;;;;;5075922;28;20106;-29
2022/10/28 06:45:52;;;;;;;70.32;35.03;;;12.30;99.90;;;;;;5074824;28;20449;-28
2022/10/28 06:48:18;;;;;;;57.80;30.65;;;12.20;99.90;;;;;;5074832;28;20044;-28
2022/10/28 06:50:44;;;;;;;69.82;32.55;;;12.20;99.90;;;;;;5075924;28;20089;-28
2022/10/28 06:53:09;;;;;;;64.78;32.17;;;12.40;99.90;;;;;;5057964;28;20048;-28
2022/10/28 06:55:35;;;;;;;67.45;32.58;;;12.40;99.90;;;;;;5075790;28;20048;-28
2022/10/28 06:58:02;;;;;;;58.50;30.58;;;12.30;99.90;;;;;;5075840;28;20056;-27
2022/10/28 07:00:29;;;;;;;59.13;29.15;;;12.30;99.90;;;;;;5075688;28;20049;-27
2022/10/28 07:02:55;;;;;;;57.30;30.70;;;12.40;99.90;;;;;;5075666;28;20044;-28
2022/10/28 07:05:22;;;;;;;51.50;26.77;;;12.40;99.90;;;;;;5074405;28;20041;-28
2022/10/28 07:07:48;;;;;;;46.65;27.50;;;12.50;99.90;;;;;;5075608;28;20053;-28
2022/10/28 07:10:14;;;;;;;55.45;28.45;;;12.60;99.90;;;;;;5075598;28;20044;-28
2022/10/28 07:12:39;;;;;;;60.72;28.90;;;12.60;99.90;;;;;;5076100;28;20052;-28
2022/10/28 07:15:06;;;;;;;50.70;27.38;;;12.70;99.90;;;;;;5074836;28;20044;-28
2022/10/28 07:17:31;;;;;;;52.33;26.73;;;12.60;99.90;;;;;;5076209;28;20074;-28
2022/10/28 07:19:57;;;;;;;54.58;26.50;;;12.70;99.90;;;;;;5075927;28;20545;-28
2022/10/28 07:22:23;;;;;;;47.78;23.98;;;12.70;99.90;;;;;;5075787;28;20471;-28
2022/10/28 07:24:48;;;;;;;44.40;23.55;;;12.80;99.90;;;;;;5075311;28;20048;-28
2022/10/28 07:27:14;;;;;;;46.88;25.23;;;12.90;99.90;;;;;;5057603;28;20056;-28
2022/10/28 07:29:40;;;;;;;41.03;21.77;;;13.10;99.90;;;;;;5074572;28;20055;-28
2022/10/28 07:32:06;;;;;;;47.30;23.55;;;13.00;99.90;;;;;;5073811;28;20047;-28
2022/10/28 07:34:31;;;;;;;34.83;22.77;;;13.10;99.90;;;;;;5075629;28;20048;-28
2022/10/28 07:36:57;;;;;;;39.22;21.67;;;13.10;99.90;;;;;;5073819;28;20101;-28
2022/10/28 07:39:23;;;;;;;34.35;17.60;;;13.30;99.90;;;;;;5075597;28;20059;-28
2022/10/28 07:41:48;;;;;;;33.20;18.45;;;13.40;99.90;;;;;;5074848;28;20040;-28
2022/10/28 07:44:15;;;;;;;29.63;16.55;;;13.60;99.90;;;;;;5075135;28;20131;-28
2022/10/28 07:46:41;;;;;;;36.70;16.30;;;13.90;99.90;;;;;;5074813;28;20095;-28
2022/10/28 07:49:07;;;;;;;27.25;13.75;;;14.00;99.90;;;;;;5075066;28;20486;-28
2022/10/28 07:51:32;;;;;;;20.15;12.00;;;14.30;99.90;;;;;;5073532;28;20079;-28
2022/10/28 07:53:58;;;;;;;20.58;12.10;;;14.40;99.90;;;;;;5074019;28;20048;-28
2022/10/28 07:56:24;;;;;;;18.95;11.82;;;14.60;99.90;;;;;;5074607;28;20047;-28
2022/10/28 07:58:50;;;;;;;22.25;11.75;;;14.70;99.90;;;;;;5074598;28;20044;-28
2022/10/28 08:01:20;;;;;;;25.50;11.80;;;14.70;99.90;;;;;;5074452;28;20044;-28
2022/10/28 08:03:46;;;;;;;19.50;10.02;;;14.70;99.90;;;;;;5073731;28;20044;-28
2022/10/28 08:06:16;;;;;;;15.93;9.40;;;14.80;99.90;;;;;;5074975;28;20047;-28
2022/10/28 08:08:42;;;;;;;21.65;10.40;;;14.90;99.90;;;;;;5074435;28;20130;-29
2022/10/28 08:11:17;;;;;;;18.88;10.63;;;15.00;99.90;;;;;;5072850;28;20390;-28
2022/10/28 08:13:43;;;;;;;26.00;9.90;;;15.10;99.90;;;;;;5074230;28;20048;-28
2022/10/28 08:16:09;;;;;;;20.85;9.38;;;15.10;99.90;;;;;;5073949;28;20052;-28
2022/10/28 08:18:36;;;;;;;18.50;8.43;;;15.20;99.90;;;;;;5057205;28;20044;-28
2022/10/28 08:21:06;;;;;;;16.27;8.88;;;15.30;99.90;;;;;;5056181;28;20049;-28
2022/10/28 08:23:33;;;;;;;18.13;7.38;;;15.40;99.90;;;;;;5075012;28;20052;-28
2022/10/28 08:25:58;;;;;;;14.75;7.72;;;15.50;99.90;;;;;;5073910;28;20047;-28
2022/10/28 08:28:24;;;;;;;20.90;7.95;;;15.60;99.90;;;;;;5074050;28;20047;-28
2022/10/28 08:30:50;;;;;;;15.88;7.97;;;15.70;99.90;;;;;;5073077;28;20075;-28
2022/10/28 08:33:16;;;;;;;13.43;7.05;;;15.80;99.90;;;;;;5073060;28;20394;-28
2022/10/28 08:35:42;;;;;;;19.40;8.25;;;15.90;99.90;;;;;;5073964;28;20050;-28
2022/10/28 08:38:08;;;;;;;16.60;7.80;;;16.00;99.90;;;;;;5073230;28;20048;-28
2022/10/28 08:40:37;;;;;;;15.38;6.90;;;16.10;99.90;;;;;;5072974;28;20360;-29
2022/10/28 08:43:14;;;;;;;16.25;7.72;;;16.20;99.90;;;;;;5073638;28;20048;-29
2022/10/28 08:46:01;;;;;;;14.52;6.95;;;16.20;99.90;;;;;;5073454;28;20048;-28
2022/10/28 08:48:34;;;;;;;13.95;7.35;;;16.30;99.90;;;;;;5073827;28;20044;-28
2022/10/28 08:51:10;;;;;;;16.40;6.65;;;16.40;99.90;;;;;;5074132;28;20040;-28
2022/10/28 08:53:58;;;;;;;17.52;6.97;;;16.50;99.90;;;;;;5074602;28;20048;-29
2022/10/28 08:56:47;;;;;;;18.38;7.13;;;16.60;99.90;;;;;;5074550;28;20080;-29
2022/10/28 08:59:21;;;;;;;14.10;6.25;;;16.70;99.90;;;;;;5073683;28;20052;-30
2022/10/28 09:01:53;;;;;;;16.23;6.70;;;16.70;99.90;;;;;;5072781;28;20363;-29
2022/10/28 09:04:36;;;;;;;13.13;6.77;;;16.70;99.90;;;;;;5073488;28;20055;-29
2022/10/28 09:07:03;;;;;;;18.80;6.28;;;16.70;99.90;;;;;;5074486;28;20044;-28
2022/10/28 09:09:32;;;;;;;20.90;7.10;;;16.70;99.90;;;;;;5073567;28;20055;-28
2022/10/28 09:12:28;;;;;;;14.95;6.53;;;16.70;99.90;;;;;;5072873;28;20052;-29
2022/10/28 09:15:12;;;;;;;13.50;6.00;;;16.80;99.90;;;;;;5074430;28;20091;-29
2022/10/28 09:17:47;;;;;;;20.73;6.95;;;16.80;99.90;;;;;;5073527;28;20082;-29
2022/10/28 09:20:17;;;;;;;12.13;6.13;;;16.80;99.90;;;;;;5073648;28;20048;-29
2022/10/28 09:22:48;;;;;;;16.58;6.32;;;16.80;99.90;;;;;;5072755;28;20048;-29
2022/10/28 09:25:21;;;;;;;15.98;6.75;;;16.80;99.90;;;;;;5074049;28;20044;-29
2022/10/28 09:27:57;;;;;;;18.52;6.70;;;16.80;99.90;;;;;;5074325;28;20040;-28
2022/10/28 09:31:04;;;;;;;13.80;5.78;;;16.80;99.90;;;;;;5073457;28;20056;-29
2022/10/28 09:33:58;;;;;;;14.10;6.32;;;16.80;99.90;;;;;;5073436;28;20127;-29
2022/10/28 09:36:40;;;;;;;21.40;6.72;;;16.80;99.90;;;;;;5073375;28;20049;-28
2022/10/28 09:39:18;;;;;;;15.63;6.57;;;16.80;99.90;;;;;;5073065;28;20490;-29
2022/10/28 09:41:48;;;;;;;20.45;6.72;;;16.80;99.90;;;;;;5073228;28;20381;-29
2022/10/28 09:44:39;;;;;;;13.57;6.40;;;16.80;99.90;;;;;;5072843;28;20076;-29
2022/10/28 09:47:23;;;;;;;10.38;5.65;;;16.80;99.90;;;;;;5072857;28;20052;-29
2022/10/28 09:49:52;;;;;;;18.30;6.78;;;16.80;99.90;;;;;;5072564;28;20045;-29
2022/10/28 09:52:26;;;;;;;10.82;5.32;;;16.80;99.90;;;;;;5074198;28;20044;-29
2022/10/28 09:54:52;;;;;;;14.70;6.40;;;16.80;99.90;;;;;;5076880;28;20490;-29
2022/10/28 09:57:19;;;;;;;14.90;6.25;;;16.90;99.90;;;;;;5076896;28;20137;-29
2022/10/28 09:59:45;;;;;;;21.73;6.80;;;16.90;99.90;;;;;;5075709;28;20044;-29
2022/10/28 10:02:26;;;;;;;16.10;6.05;;;17.00;99.90;;;;;;5075548;28;20044;-29
2022/10/28 10:04:53;;;;;;;14.27;5.57;;;17.10;99.90;;;;;;5076698;28;20056;-29
2022/10/28 10:07:29;;;;;;;14.82;6.28;;;17.20;99.90;;;;;;5076744;28;20045;-29
2022/10/28 10:10:00;;;;;;;18.27;6.45;;;17.30;99.90;;;;;;5076704;28;20120;-28
2022/10/28 10:12:26;;;;;;;12.35;5.75;;;17.40;99.90;;;;;;5075213;28;20494;-29
2022/10/28 10:14:55;;;;;;;18.65;5.95;;;17.40;99.90;;;;;;5076807;28;20075;-29
2022/10/28 10:17:28;;;;;;;18.30;6.47;;;17.40;99.90;;;;;;5076577;28;20052;-30
2022/10/28 10:20:06;;;;;;;;;;;17.50;99.90;;;;;;5076956;28;20127;-29
2022/10/28 10:22:35;;;;;;;15.23;5.95;;;17.50;99.90;;;;;;5076427;28;19931;-30
2022/10/28 10:25:01;;;;;;;15.30;5.05;;;17.60;99.90;;;;;;5076438;28;20044;-29
2022/10/28 10:27:29;;;;;;;12.50;6.10;;;17.60;99.90;;;;;;5076392;28;20083;-29
2022/10/28 10:29:56;;;;;;;14.35;5.25;;;17.80;99.90;;;;;;5076325;28;20126;-29
2022/10/28 10:32:35;;;;;;;15.10;5.53;;;17.80;99.90;;;;;;5076290;28;20056;-29
2022/10/28 10:35:12;;;;;;;19.38;5.88;;;17.80;99.90;;;;;;5076908;28;20371;-30
2022/10/28 10:37:43;;;;;;;13.20;5.85;;;17.90;99.90;;;;;;5077063;28;20137;-30
2022/10/28 10:40:25;;;;;;;14.57;5.38;;;18.10;99.90;;;;;;5075890;28;20482;-29
2022/10/28 10:42:57;;;;;;;12.63;5.80;;;18.20;99.90;;;;;;5076742;28;20094;-29
2022/10/28 10:45:25;;;;;;;11.25;4.45;;;18.20;99.90;;;;;;5075670;28;20287;-29
2022/10/28 10:48:17;;;;;;;15.82;5.03;;;18.40;99.90;;;;;;5076552;28;20092;-30
2022/10/28 10:50:46;;;;;;;11.00;4.75;;;18.60;99.90;;;;;;5076819;28;20056;-29
2022/10/28 10:53:31;;;;;;;15.70;5.93;;;18.70;99.90;;;;;;5075887;28;20048;-29
2022/10/28 10:56:03;;;;;;;12.27;4.72;;;18.80;99.90;;;;;;5076455;28;20048;-29
2022/10/28 10:58:33;;;;;;;17.17;5.90;;;18.80;99.90;;;;;;5075872;28;20056;-29
2022/10/28 11:01:02;;;;;;;15.80;6.53;;;18.80;99.90;;;;;;5075702;28;20094;-30
2022/10/28 11:03:35;;;;;;;15.40;6.28;;;18.70;99.90;;;;;;5074867;28;20410;-29
2022/10/28 11:06:02;;;;;;;;;;;18.70;99.90;;;;;;5076014;28;20134;-30
2022/10/28 11:08:39;;;;;;;13.50;5.30;;;18.60;99.90;;;;;;5075667;28;19921;-29
2022/10/28 11:11:21;;;;;;;12.68;5.45;;;18.80;99.90;;;;;;5074623;28;20056;-29
2022/10/28 11:14:03;;;;;;;13.93;5.07;;;19.00;99.90;;;;;;5075562;28;20079;-29
2022/10/28 11:16:28;;;;;;;14.55;5.57;;;19.10;99.90;;;;;;5075528;28;20052;-29
2022/10/28 11:18:54;;;;;;;12.20;5.25;;;18.90;99.90;;;;;;5074240;28;20051;-29
2022/10/28 11:21:25;;;;;;;12.70;4.97;;;18.80;99.90;;;;;;5075007;28;20055;-29
2022/10/28 11:24:19;;;;;;;15.90;5.07;;;19.10;99.90;;;;;;5076164;28;20418;-29
2022/10/28 11:27:02;;;;;;;17.70;4.95;;;19.30;99.90;;;;;;5075290;28;20048;-29
2022/10/28 11:29:28;;;;;;;9.60;5.15;;;19.40;99.90;;;;;;5076106;28;20048;-28
2022/10/28 11:32:19;;;;;;;18.42;5.88;;;19.50;99.90;;;;;;5074521;28;20454;-29
2022/10/28 11:34:48;;;;;;;13.15;4.93;;;19.60;1.00;;;;;;5075985;28;20351;-29
2022/10/28 11:37:39;;;;;;;15.80;6.10;;;19.60;99.90;;;;;;5075603;28;20137;-29
2022/10/28 11:40:28;;;;;;;14.93;5.25;;;19.60;28.40;;;;;;5074916;28;20055;-30
2022/10/28 11:43:10;;;;;;;16.48;4.95;;;19.60;1.00;;;;;;5074951;28;20185;-29
2022/10/28 11:46:33;;;;;;;16.65;4.75;;;19.60;1.00;;;;;;5075459;28;20434;-29
2022/10/28 11:49:05;;;;;;;14.27;4.38;;;19.50;99.90;;;;;;5073263;28;20059;-29
2022/10/28 11:51:54;;;;;;;15.98;5.22;;;19.50;1.00;;;;;;5072959;28;20102;-29
2022/10/28 11:54:34;;;;;;;12.23;4.78;;;19.70;1.00;;;;;;5074602;28;20135;-29
2022/10/28 11:57:14;;;;;;;13.63;4.95;;;19.80;99.90;;;;;;5073460;28;20057;-29
2022/10/28 12:00:22;;;;;;;13.82;4.95;;;19.90;85.80;;;;;;5073638;28;20433;-30
2022/10/28 12:03:19;;;;;;;14.50;4.22;;;20.00;99.90;;;;;;5074580;28;20048;-28
2022/10/28 12:06:13;;;;;;;18.58;5.00;;;20.10;1.00;;;;;;5074384;28;20048;-30
2022/10/28 12:09:03;;;;;;;;;;;20.10;1.00;;;;;;5073908;28;20463;-29
2022/10/28 12:11:49;;;;;;;13.95;4.30;;;20.10;1.00;;;;;;5074672;28;20304;-29
2022/10/28 12:14:26;;;;;;;14.10;4.40;;;20.00;99.90;;;;;;5074296;28;20079;-29
2022/10/28 12:17:17;;;;;;;15.98;4.88;;;20.10;1.00;;;;;;5073113;28;20056;-29
2022/10/28 12:20:10;;;;;;;19.30;5.10;;;20.00;20.90;;;;;;5074855;28;20050;-29
2022/10/28 12:22:46;;;;;;;15.60;5.03;;;20.00;1.00;;;;;;5073759;28;20051;-29
2022/10/28 12:25:17;;;;;;;16.98;4.90;;;19.90;99.90;;;;;;5074127;28;20060;-29
2022/10/28 12:27:46;;;;;;;16.90;5.05;;;19.80;99.90;;;;;;5074422;28;20076;-29
2022/10/28 12:30:27;;;;;;;11.70;4.68;;;19.80;99.90;;;;;;5074082;28;20052;-29
2022/10/28 12:32:59;;;;;;;13.18;4.40;;;19.70;1.00;;;;;;5074601;28;20048;-30
2022/10/28 12:35:30;;;;;;;10.90;4.13;;;19.70;1.00;;;;;;5073680;28;20498;-29
2022/10/28 12:38:25;;;;;;;11.90;4.40;;;19.60;99.90;;;;;;5074284;28;20398;-29
2022/10/28 12:41:15;;;;;;;13.70;4.38;;;19.60;99.90;;;;;;5074428;28;20128;-29
2022/10/28 12:43:47;;;;;;;15.73;4.57;;;19.60;99.90;;;;;;5072663;28;20297;-30
2022/10/28 12:46:38;;;;;;;17.25;5.15;;;19.60;99.90;;;;;;5073925;28;20059;-29
2022/10/28 12:49:53;;;;;;;16.52;5.35;;;19.60;99.90;;;;;;5073606;28;20083;-30
2022/10/28 12:52:35;;;;;;;18.23;5.40;;;19.60;94.10;;;;;;5073472;28;20080;-30
2022/10/28 12:55:17;;;;;;;10.27;4.25;;;19.70;99.90;;;;;;5074028;28;20382;-30
2022/10/28 12:57:52;;;;;;;16.35;5.93;;;19.70;99.90;;;;;;5073730;28;20044;-29